Aviation Digital Data Service (ADDS)

Output produced by METARs form (0855 UTC 18 October 2018)
found at http://www.aviationweather.gov/metar/data/
 
FEFF 180700Z VRB02KT 9999 FEW010 22/19 Q1013 NOSIG
TAF FEFF 180500Z 1806/1912 22005KT 9999 SCT010 
     BECMG 1807/1809 BKN013 
     BECMG 1810/1811 BKN026 FEW040CB 
     PROB30 
     TEMPO 1814/1818 VRB15KT 4000 TSRA
       
FEFT 180800Z 28014KT 9999 BKN013 22/20 Q1013